Silver Cloud — C6MQ5 — position and weather

sailwx.info

Track history (hours):
 
Tides and Currents Weather Stations Pressure Air Temp Water Temp Dewpoint Dewpoint Depression Visibility Wind Speed Wind Dir Waves Ship Positions

Silver Cloud

Operator: V Ships Leisure SAM

Last reported at 2016-Jul-21 11:19 UTC. Time now 2016-Jul-26 14:14 UTC.
Position N 28°32' W 015°50'.

Length 155 m; draft 5.7 m.

Type: Passenger vessel. MMSI: 309027000.

Date/timePositionNaut miles runAvg speedWind from/ knotsBaromVisibWave heightAir tempDewpointWater temp
2016-Jul-21 11:19N 28°32' W 015°50'1317.3
2016-Jul-21 10:33N 28°43' W 015°40'1717.4
2016-Jul-21 09:33N 28°58' W 015°31'1717.3
2016-Jul-21 08:33N 29°13' W 015°21'1717.4
2016-Jul-21 07:33N 29°29' W 015°12'1817.5
2016-Jul-21 06:33N 29°44' W 015°03'1917.5
2016-Jul-21 05:28N 30°01' W 014°52'1617.5
2016-Jul-21 04:33N 30°15' W 014°44'1917.7
2016-Jul-21 03:28N 30°32' W 014°34'1617.6
2016-Jul-21 02:33N 30°46' W 014°25'30517.5
2016-Jul-20 09:09N 35°16' W 011°35'12217.5
2016-Jul-20 02:11N 37°04' W 010°25'1217.7
2016-Jul-20 01:32N 37°14' W 010°18'2417.7
2016-Jul-20 00:11N 37°36' W 010°04'1217.6
2016-Jul-19 23:29N 37°46' W 009°57'1617.4
2016-Jul-19 22:33N 38°01' W 009°47'1817.5
2016-Jul-19 21:33N 38°16' W 009°37'1717.3
2016-Jul-19 20:33N 38°32' W 009°26'1413.9
2016-Jul-19 19:33N 38°41' W 009°13'5 4.5
2016-Jul-19 18:27N 38°43' W 009°07'0 0.0
2016-Jul-19 17:33N 38°43' W 009°07'0 0.0
2016-Jul-19 16:33N 38°43' W 009°07'0 0.0
2016-Jul-19 15:33N 38°43' W 009°07'0 0.0
2016-Jul-19 14:30N 38°43' W 009°07'0 0.0
2016-Jul-19 13:33N 38°43' W 009°07'0 0.0
2016-Jul-19 12:32N 38°43' W 009°07'0 0.0
2016-Jul-19 11:32N 38°43' W 009°07'0 0.0
2016-Jul-19 10:29N 38°43' W 009°07'0 0.0
2016-Jul-19 09:29N 38°43' W 009°07'0 0.0
2016-Jul-19 08:32N 38°43' W 009°07'0 0.0
2016-Jul-19 07:29N 38°43' W 009°07'14 4.9
2016-Jul-19 04:33N 38°35' W 009°23'1212.4
2016-Jul-19 03:33N 38°22' W 009°22'1313.0
2016-Jul-19 02:33N 38°09' W 009°22'1413.6
2016-Jul-19 01:33N 37°56' W 009°22'1413.9
2016-Jul-19 00:33N 37°42' W 009°22'1414.0
2016-Jul-18 23:33N 37°28' W 009°22'2114.0
2016-Jul-18 22:05N 37°08' W 009°21'35 9.8
2016-Jul-18 18:33N 36°52' W 008°43'1414.2
2016-Jul-18 17:33N 37°04' W 008°32'4 3.6
2016-Jul-18 16:29N 37°08' W 008°32'0 0.0
2016-Jul-18 15:14N 37°08' W 008°32'0 0.0
2016-Jul-18 14:32N 37°08' W 008°32'0 0.0
2016-Jul-18 10:32N 37°08' W 008°32'0 0.0
2016-Jul-18 09:22N 37°08' W 008°32'0 0.0
2016-Jul-18 08:31N 37°08' W 008°32'0 0.0
2016-Jul-18 07:22N 37°08' W 008°32'0 0.0
2016-Jul-18 06:31N 37°08' W 008°32'6 5.7
2016-Jul-18 05:33N 37°02' W 008°32'1212.1
2016-Jul-18 04:33N 36°57' W 008°18'141 4.7
2016-Jul-16 22:33N 35°58' W 005°38'1312.8
2016-Jul-16 21:33N 36°02' W 005°23'231 5.6
2016-Jul-15 04:28N 37°30' W 000°56'1112.1
2016-Jul-15 03:33N 37°31' W 000°42'1411.8
2016-Jul-15 02:24N 37°40' W 000°29'1012.2
2016-Jul-15 01:33N 37°49' W 000°22'1312.5
2016-Jul-15 00:33N 37°59' W 000°14'8610.4
2016-Jul-14 16:17N 39°25' W 000°18'2 3.2
2016-Jul-14 15:31N 39°27' W 000°20'0 0.0
2016-Jul-14 14:31N 39°27' W 000°20'0 0.0
2016-Jul-14 13:33N 39°27' W 000°20'0 0.0
2016-Jul-14 12:27N 39°27' W 000°20'0 0.0
2016-Jul-14 11:30N 39°27' W 000°20'0 0.0
2016-Jul-14 10:33N 39°27' W 000°20'0 0.0
2016-Jul-14 09:33N 39°27' W 000°20'0 0.0
2016-Jul-14 08:33N 39°27' W 000°20'0 0.0
2016-Jul-14 07:33N 39°27' W 000°20'0 0.0
2016-Jul-14 06:33N 39°27' W 000°20'0 0.2
2016-Jul-14 05:34N 39°27' W 000°19'6 5.8
2016-Jul-14 04:33N 39°27' W 000°12'7814.3
2016-Jul-13 23:05N 40°21' E 001°02'1115.3
2016-Jul-13 22:22N 40°28' E 001°12'1214.8
2016-Jul-13 21:33N 40°36' E 001°24'1414.4
2016-Jul-13 20:33N 40°47' E 001°38'1414.4
2016-Jul-13 19:33N 40°57' E 001°51'220 5.3
2016-Jul-12 02:10N 42°55' E 005°60'914.2
2016-Jul-12 01:33N 42°54' E 006°12'1513.6
2016-Jul-12 00:28N 42°57' E 006°32'1314.5
2016-Jul-11 23:33N 43°06' E 006°45'1515.1
2016-Jul-11 22:33N 43°17' E 006°59'1514.6
2016-Jul-11 21:33N 43°28' E 007°13'1514.7
2016-Jul-11 20:33N 43°38' E 007°27'6 5.1
2016-Jul-11 19:25N 43°44' E 007°26'0 0.0
2016-Jul-11 18:31N 43°44' E 007°26'0 0.0
2016-Jul-11 17:31N 43°44' E 007°26'0 0.0
2016-Jul-11 16:31N 43°44' E 007°26'0 0.0
2016-Jul-11 15:19N 43°44' E 007°26'0 0.0
2016-Jul-11 14:31N 43°44' E 007°26'0 0.0
2016-Jul-11 13:28N 43°44' E 007°26'0 0.0
2016-Jul-11 12:31N 43°44' E 007°26'0 0.0
2016-Jul-11 11:31N 43°44' E 007°26'  
Track history (hours):
 
Tides and Currents Weather Stations Pressure Air Temp Water Temp Dewpoint Dewpoint Depression Visibility Wind Speed Wind Dir Waves Ship Positions

Silver Cloud

Operator: V Ships Leisure SAM

Last reported at 2016-Jul-21 11:19 UTC. Time now 2016-Jul-26 14:14 UTC.
Position N 28°32' W 015°50'.

Length 155 m; draft 5.7 m.

Type: Passenger vessel. MMSI: 309027000.

Date/timePositionNaut miles runAvg speedWind from/ knotsBaromVisibWave heightAir tempDewpointWater temp
2016-Jul-21 11:19N 28°32' W 015°50'1317.3
2016-Jul-21 10:33N 28°43' W 015°40'1717.4
2016-Jul-21 09:33N 28°58' W 015°31'1717.3
2016-Jul-21 08:33N 29°13' W 015°21'1717.4
2016-Jul-21 07:33N 29°29' W 015°12'1817.5
2016-Jul-21 06:33N 29°44' W 015°03'1917.5
2016-Jul-21 05:28N 30°01' W 014°52'1617.5
2016-Jul-21 04:33N 30°15' W 014°44'1917.7
2016-Jul-21 03:28N 30°32' W 014°34'1617.6
2016-Jul-21 02:33N 30°46' W 014°25'30517.5
2016-Jul-20 09:09N 35°16' W 011°35'12217.5
2016-Jul-20 02:11N 37°04' W 010°25'1217.7
2016-Jul-20 01:32N 37°14' W 010°18'2417.7
2016-Jul-20 00:11N 37°36' W 010°04'1217.6
2016-Jul-19 23:29N 37°46' W 009°57'1617.4
2016-Jul-19 22:33N 38°01' W 009°47'1817.5
2016-Jul-19 21:33N 38°16' W 009°37'1717.3
2016-Jul-19 20:33N 38°32' W 009°26'1413.9
2016-Jul-19 19:33N 38°41' W 009°13'5 4.5
2016-Jul-19 18:27N 38°43' W 009°07'0 0.0
2016-Jul-19 17:33N 38°43' W 009°07'0 0.0
2016-Jul-19 16:33N 38°43' W 009°07'0 0.0
2016-Jul-19 15:33N 38°43' W 009°07'0 0.0
2016-Jul-19 14:30N 38°43' W 009°07'0 0.0
2016-Jul-19 13:33N 38°43' W 009°07'0 0.0
2016-Jul-19 12:32N 38°43' W 009°07'0 0.0
2016-Jul-19 11:32N 38°43' W 009°07'0 0.0
2016-Jul-19 10:29N 38°43' W 009°07'0 0.0
2016-Jul-19 09:29N 38°43' W 009°07'0 0.0
2016-Jul-19 08:32N 38°43' W 009°07'0 0.0
2016-Jul-19 07:29N 38°43' W 009°07'14 4.9
2016-Jul-19 04:33N 38°35' W 009°23'1212.4
2016-Jul-19 03:33N 38°22' W 009°22'1313.0
2016-Jul-19 02:33N 38°09' W 009°22'1413.6
2016-Jul-19 01:33N 37°56' W 009°22'1413.9
2016-Jul-19 00:33N 37°42' W 009°22'1414.0
2016-Jul-18 23:33N 37°28' W 009°22'2114.0
2016-Jul-18 22:05N 37°08' W 009°21'35 9.8
2016-Jul-18 18:33N 36°52' W 008°43'1414.2
2016-Jul-18 17:33N 37°04' W 008°32'4 3.6
2016-Jul-18 16:29N 37°08' W 008°32'0 0.0
2016-Jul-18 15:14N 37°08' W 008°32'0 0.0
2016-Jul-18 14:32N 37°08' W 008°32'0 0.0
2016-Jul-18 10:32N 37°08' W 008°32'0 0.0
2016-Jul-18 09:22N 37°08' W 008°32'0 0.0
2016-Jul-18 08:31N 37°08' W 008°32'0 0.0
2016-Jul-18 07:22N 37°08' W 008°32'0 0.0
2016-Jul-18 06:31N 37°08' W 008°32'6 5.7
2016-Jul-18 05:33N 37°02' W 008°32'1212.1
2016-Jul-18 04:33N 36°57' W 008°18'141 4.7
2016-Jul-16 22:33N 35°58' W 005°38'1312.8
2016-Jul-16 21:33N 36°02' W 005°23'231 5.6
2016-Jul-15 04:28N 37°30' W 000°56'1112.1
2016-Jul-15 03:33N 37°31' W 000°42'1411.8
2016-Jul-15 02:24N 37°40' W 000°29'1012.2
2016-Jul-15 01:33N 37°49' W 000°22'1312.5
2016-Jul-15 00:33N 37°59' W 000°14'8610.4
2016-Jul-14 16:17N 39°25' W 000°18'2 3.2
2016-Jul-14 15:31N 39°27' W 000°20'0 0.0
2016-Jul-14 14:31N 39°27' W 000°20'0 0.0
2016-Jul-14 13:33N 39°27' W 000°20'0 0.0
2016-Jul-14 12:27N 39°27' W 000°20'0 0.0
2016-Jul-14 11:30N 39°27' W 000°20'0 0.0
2016-Jul-14 10:33N 39°27' W 000°20'0 0.0
2016-Jul-14 09:33N 39°27' W 000°20'0 0.0
2016-Jul-14 08:33N 39°27' W 000°20'0 0.0
2016-Jul-14 07:33N 39°27' W 000°20'0 0.0
2016-Jul-14 06:33N 39°27' W 000°20'0 0.2
2016-Jul-14 05:34N 39°27' W 000°19'6 5.8
2016-Jul-14 04:33N 39°27' W 000°12'7814.3
2016-Jul-13 23:05N 40°21' E 001°02'1115.3
2016-Jul-13 22:22N 40°28' E 001°12'1214.8
2016-Jul-13 21:33N 40°36' E 001°24'1414.4
2016-Jul-13 20:33N 40°47' E 001°38'1414.4
2016-Jul-13 19:33N 40°57' E 001°51'220 5.3
2016-Jul-12 02:10N 42°55' E 005°60'914.2
2016-Jul-12 01:33N 42°54' E 006°12'1513.6
2016-Jul-12 00:28N 42°57' E 006°32'1314.5
2016-Jul-11 23:33N 43°06' E 006°45'1515.1
2016-Jul-11 22:33N 43°17' E 006°59'1514.6
2016-Jul-11 21:33N 43°28' E 007°13'1514.7
2016-Jul-11 20:33N 43°38' E 007°27'6 5.1
2016-Jul-11 19:25N 43°44' E 007°26'0 0.0
2016-Jul-11 18:31N 43°44' E 007°26'0 0.0
2016-Jul-11 17:31N 43°44' E 007°26'0 0.0
2016-Jul-11 16:31N 43°44' E 007°26'0 0.0
2016-Jul-11 15:19N 43°44' E 007°26'0 0.0
2016-Jul-11 14:31N 43°44' E 007°26'0 0.0
2016-Jul-11 13:28N 43°44' E 007°26'0 0.0
2016-Jul-11 12:31N 43°44' E 007°26'0 0.0
2016-Jul-11 11:31N 43°44' E 007°26'  

Dump ship's entire track history